Time;durP1;ratioP1;P1;durP2;ratioP2;P2;SDS_P1;SDS_P2;PMS_P1;PMS_P2;Temp;Humidity;BMP_temperature;BMP_pressure;BME280_temperature;BME280_humidity;BME280_pressure;Samples;Min_cycle;Max_cycle;Signal;HPM_P1;HPM_P2
2022/05/13 00:02:24;;;;;;;6.43;2.10;;;;;;;11.00;68.52;101801.63;5026760;28;20284;-76
2022/05/13 00:04:49;;;;;;;6.40;2.08;;;;;;;10.94;68.21;101799.09;5031433;28;20067;-76
2022/05/13 00:07:15;;;;;;;9.65;2.30;;;;;;;10.92;68.69;101801.69;5029815;28;20122;-76
2022/05/13 00:12:29;;;;;;;7.75;2.80;;;;;;;10.91;70.01;101806.91;5024147;28;20048;-76
2022/05/13 00:14:55;;;;;;;9.27;2.55;;;;;;;10.87;69.56;101803.47;5029386;28;20108;-76
2022/05/13 00:17:22;;;;;;;7.63;2.80;;;;;;;10.83;69.70;101799.22;5039826;28;20036;-76
2022/05/13 00:19:48;;;;;;;4.60;2.50;;;;;;;10.81;69.17;101797.50;5029975;28;20029;-76
2022/05/13 00:22:13;;;;;;;10.77;3.13;;;;;;;10.79;69.97;101794.91;5030537;28;20083;-76
2022/05/13 00:24:39;;;;;;;10.90;3.08;;;;;;;10.75;68.83;101794.97;5027977;28;20115;-76
2022/05/13 00:27:06;;;;;;;8.80;3.13;;;;;;;10.70;69.63;101795.00;5029640;28;20490;-76
2022/05/13 00:29:32;;;;;;;9.95;2.95;;;;;;;10.70;70.81;101795.00;5033776;28;20032;-76
2022/05/13 00:31:57;;;;;;;10.18;3.40;;;;;;;10.68;70.78;101800.19;5038014;28;20037;-76
2022/05/13 00:34:23;;;;;;;10.30;3.30;;;;;;;10.62;70.73;101796.81;5031558;28;20026;-76
2022/05/13 00:36:48;;;;;;;8.48;3.33;;;;;;;10.59;69.96;101796.81;5029865;28;20467;-76
2022/05/13 00:39:14;;;;;;;9.30;3.75;;;;;;;10.59;71.42;101796.81;5028430;28;20037;-76
2022/05/13 00:41:40;;;;;;;14.43;3.40;;;;;;;10.56;70.53;101794.25;5028585;28;20025;-76
2022/05/13 00:44:06;;;;;;;8.43;3.60;;;;;;;10.57;70.89;101803.78;5028892;28;20075;-76
2022/05/13 00:46:32;;;;;;;11.93;3.65;;;;;;;10.52;71.29;101798.59;5031722;28;20080;-76
2022/05/13 00:49:01;;;;;;;13.02;3.80;;;;;;;10.50;70.55;101800.38;5030374;28;20034;-76
2022/05/13 00:51:31;;;;;;;7.55;3.38;;;;;;;10.50;71.07;101796.91;5030057;28;20357;-76
2022/05/13 00:53:57;;;;;;;9.43;3.67;;;;;;;10.48;70.69;101790.88;5030289;28;20025;-76
2022/05/13 00:56:23;;;;;;;9.88;3.70;;;;;;;10.49;71.38;101798.66;5026219;28;20087;-76
2022/05/13 00:58:56;;;;;;;11.63;3.60;;;;;;;10.51;70.63;101793.41;5027118;28;20133;-81
2022/05/13 01:01:22;;;;;;;8.77;3.17;;;;;;;10.51;70.46;101789.09;5032964;28;20025;-81
2022/05/13 01:03:50;;;;;;;13.93;3.60;;;;;;;10.59;71.78;101786.44;5029371;28;20554;-80
2022/05/13 01:06:20;;;;;;;11.73;3.75;;;;;;;10.58;71.09;101792.50;5028031;28;20021;-80
2022/05/13 01:08:47;;;;;;;13.07;3.78;;;;;;;10.57;70.26;101780.44;5029211;28;20014;-80
2022/05/13 01:11:16;;;;;;;12.00;3.47;;;;;;;10.58;70.11;101785.59;5029555;28;20025;-81
2022/05/13 01:13:44;;;;;;;10.80;3.30;;;;;;;10.59;70.70;101792.50;5039345;28;20434;-81
2022/05/13 01:16:10;;;;;;;12.25;4.00;;;;;;;10.59;70.29;101787.31;5039419;28;20062;-80
2022/05/13 01:18:38;;;;;;;8.00;3.40;;;;;;;10.62;70.01;101787.28;5028037;28;20460;-80
2022/05/13 01:21:06;;;;;;;15.55;3.67;;;;;;;10.68;72.14;101778.59;5029120;28;20037;-81
2022/05/13 01:23:34;;;;;;;11.15;3.60;;;;;;;10.65;71.94;101789.84;5026680;28;20395;-80
2022/05/13 01:26:09;;;;;;;11.55;3.97;;;;;;;10.62;71.04;101783.84;5028683;28;20037;-81
2022/05/13 01:28:41;;;;;;;12.32;3.80;;;;;;;10.60;71.21;101782.97;5028609;28;20053;-80
2022/05/13 01:31:10;;;;;;;11.98;3.88;;;;;;;10.57;72.49;101785.63;5030053;28;20069;-81
2022/05/13 01:33:37;;;;;;;11.63;3.97;;;;;;;10.57;71.59;101783.03;5028769;28;20036;-81
2022/05/13 01:36:05;;;;;;;10.73;3.88;;;;;;;10.57;71.63;101780.44;5027975;28;20014;-81
2022/05/13 01:38:36;;;;;;;11.30;3.65;;;;;;;10.55;71.70;101784.75;5036100;28;20025;-81
2022/05/13 01:41:02;;;;;;;9.25;3.90;;;;;;;10.54;72.99;101783.91;5019846;28;20396;-81
2022/05/13 01:43:27;;;;;;;9.15;3.90;;;;;;;10.56;71.82;101789.94;5027710;28;20618;-80
2022/05/13 01:45:53;;;;;;;12.88;4.00;;;;;;;10.53;71.42;101789.09;5027843;28;20025;-81
2022/05/13 01:48:19;;;;;;;10.32;3.65;;;;;;;10.57;72.24;101794.25;5021940;28;20121;-80
2022/05/13 01:50:45;;;;;;;14.95;3.70;;;;;;;10.56;71.40;101791.66;5023678;28;20100;-81
2022/05/13 01:53:10;;;;;;;9.02;3.78;;;;;;;10.57;70.04;101796.84;5022198;28;20032;-81
2022/05/13 01:55:36;;;;;;;11.52;3.63;;;;;;;10.62;71.53;101789.88;5029629;28;20028;-81
2022/05/13 01:58:02;;;;;;;9.35;3.42;;;;;;;10.67;71.05;101795.88;5028716;28;20104;-81
2022/05/13 02:00:28;;;;;;;8.60;3.38;;;;;;;10.73;69.69;101792.38;5033414;28;20057;-81
2022/05/13 02:05:38;;;;;;;9.10;3.25;;;;;;;10.77;69.39;101783.72;5030253;28;20027;-81
2022/05/13 02:08:04;;;;;;;9.93;3.47;;;;;;;10.81;70.38;101784.53;5029542;28;20119;-81
2022/05/13 02:10:29;;;;;;;9.80;3.53;;;;;;;10.78;68.66;101777.63;5027278;28;20403;-76
2022/05/13 02:12:55;;;;;;;9.02;3.30;;;;;;;10.77;69.54;101780.25;5026451;28;20483;-76
2022/05/13 02:15:20;;;;;;;9.80;3.13;;;;;;;10.76;69.06;101778.53;5030177;28;20041;-76
2022/05/13 02:17:46;;;;;;;10.68;3.17;;;;;;;10.73;68.89;101782.00;5026978;28;20045;-76
2022/05/13 02:20:12;;;;;;;9.80;3.75;;;;;;;10.71;68.70;101778.59;5040642;28;20029;-76
2022/05/13 02:22:37;;;;;;;9.30;3.00;;;;;;;10.68;69.54;101773.41;5027768;28;20140;-76
2022/05/13 02:25:04;;;;;;;11.82;3.38;;;;;;;10.65;68.94;101776.00;5036354;28;20052;-76
2022/05/13 02:27:29;;;;;;;7.63;3.42;;;;;;;10.64;68.98;101782.94;5024800;28;20388;-76
2022/05/13 02:29:54;;;;;;;8.95;3.35;;;;;;;10.62;69.46;101787.28;5030224;28;20490;-76
2022/05/13 02:32:20;;;;;;;14.07;4.40;;;;;;;10.59;69.34;101786.44;5027577;28;20079;-76
2022/05/13 02:34:46;;;;;;;13.57;4.63;;;;;;;10.58;69.96;101785.59;5031855;28;20024;-76
2022/05/13 02:37:11;;;;;;;11.48;4.90;;;;;;;10.58;68.97;101782.13;5034353;28;20033;-76
2022/05/13 02:39:36;;;;;;;14.50;4.68;;;;;;;10.58;69.18;101783.00;5031432;28;20033;-81
2022/05/13 02:42:02;;;;;;;12.77;4.28;;;;;;;10.60;69.83;101778.66;5026526;28;20025;-81
2022/05/13 02:44:27;;;;;;;12.55;4.30;;;;;;;10.64;71.67;101777.75;5025561;28;20139;-81
2022/05/13 02:46:52;;;;;;;11.63;3.97;;;;;;;10.67;70.81;101775.13;5030316;28;20025;-81
2022/05/13 02:49:18;;;;;;;9.30;3.80;;;;;;;10.71;70.23;101777.72;5039857;28;20037;-80
2022/05/13 02:51:46;;;;;;;13.15;3.90;;;;;;;10.68;70.14;101779.47;5027941;28;20303;-80
2022/05/13 02:54:12;;;;;;;10.00;3.53;;;;;;;10.69;69.74;101768.22;5027761;28;20100;-80
2022/05/13 02:56:38;;;;;;;13.40;4.15;;;;;;;10.74;70.41;101772.50;5031186;28;20121;-81
2022/05/13 02:59:04;;;;;;;9.45;3.60;;;;;;;10.76;69.87;101773.34;5027191;28;20049;-80
2022/05/13 03:01:29;;;;;;;15.85;4.38;;;;;;;10.73;70.08;101775.94;5026721;28;20377;-81
2022/05/13 03:03:55;;;;;;;12.82;4.03;;;;;;;10.76;70.56;101768.16;5027385;28;20489;-81
2022/05/13 03:06:21;;;;;;;12.68;3.92;;;;;;;10.80;70.57;101773.28;5037993;28;20067;-81
2022/05/13 03:08:48;;;;;;;10.05;3.60;;;;;;;10.79;69.96;101776.75;5028352;28;20021;-81
2022/05/13 03:11:14;;;;;;;12.65;3.60;;;;;;;10.84;70.40;101776.72;5033291;28;20036;-80
2022/05/13 03:13:40;;;;;;;12.10;4.20;;;;;;;10.83;70.12;101777.59;5030317;28;20064;-81
2022/05/13 03:16:08;;;;;;;12.38;4.03;;;;;;;10.80;70.30;101770.69;5035507;28;20057;-81
2022/05/13 03:18:34;;;;;;;13.93;3.78;;;;;;;10.83;70.20;101768.09;5028121;28;20030;-81
2022/05/13 03:20:59;;;;;;;12.43;3.80;;;;;;;10.86;70.91;101764.59;5030143;28;20048;-81
2022/05/13 03:23:25;;;;;;;12.18;3.83;;;;;;;10.84;70.47;101772.41;5032356;28;20549;-81
2022/05/13 03:25:50;;;;;;;9.68;3.42;;;;;;;10.82;70.31;101763.75;5033280;28;20423;-80
2022/05/13 03:28:15;;;;;;;11.20;3.58;;;;;;;10.85;70.30;101771.50;5046555;28;20029;-81
2022/05/13 03:30:41;;;;;;;12.07;3.37;;;;;;;10.80;70.43;101762.91;5040086;28;20036;-81
2022/05/13 03:33:06;;;;;;;12.27;3.95;;;;;;;10.82;70.93;101763.75;5030845;28;20291;-81
2022/05/13 03:35:32;;;;;;;13.18;4.00;;;;;;;10.82;71.25;101770.69;5032057;28;20168;-81
2022/05/13 03:37:57;;;;;;;12.38;3.85;;;;;;;10.84;72.01;101768.94;5034358;28;20669;-81
2022/05/13 03:40:23;;;;;;;15.15;4.05;;;;;;;10.85;71.44;101771.50;5031562;28;20032;-80
2022/05/13 03:42:49;;;;;;;12.85;3.80;;;;;;;10.85;71.30;101771.50;5030531;28;20049;-81
2022/05/13 03:45:16;;;;;;;15.55;3.80;;;;;;;10.81;71.40;101766.38;5030482;28;20091;-81
2022/05/13 03:47:42;;;;;;;12.20;4.00;;;;;;;10.80;71.61;101770.69;5030101;28;20510;-81
2022/05/13 03:50:08;;;;;;;14.43;4.00;;;;;;;10.75;71.90;101771.63;5031339;28;20128;-81
2022/05/13 03:52:34;;;;;;;11.90;4.00;;;;;;;10.69;72.28;101765.63;5030078;28;20033;-81
2022/05/13 03:54:59;;;;;;;11.30;4.35;;;;;;;10.68;72.22;101770.81;5028563;28;20021;-81
2022/05/13 03:57:25;;;;;;;16.80;4.47;;;;;;;10.62;72.52;101765.69;5030839;28;20037;-81
2022/05/13 03:59:50;;;;;;;12.93;4.18;;;;;;;10.63;73.33;101770.88;5028499;28;20705;-81
2022/05/13 04:02:15;;;;;;;14.15;4.53;;;;;;;10.62;72.89;101760.50;5031142;28;20072;-81
2022/05/13 04:10:08;;;;;;;16.77;4.43;;;;;;;10.64;73.47;101771.72;5029382;28;20109;-81
2022/05/13 04:18:03;;;;;;;14.75;4.55;;;;;;;10.68;74.17;101776.00;5030123;28;20047;-81
2022/05/13 04:20:28;;;;;;;15.32;4.93;;;;;;;10.69;74.78;101769.94;5026380;28;20132;-81
2022/05/13 04:22:54;;;;;;;18.75;5.10;;;;;;;10.67;74.25;101775.13;5029659;28;20455;-81
2022/05/13 04:25:19;;;;;;;12.37;4.80;;;;;;;10.65;73.90;101766.50;5030106;28;20682;-81
2022/05/13 04:27:45;;;;;;;13.23;4.53;;;;;;;10.64;74.28;101769.13;5027803;28;20299;-81
2022/05/13 04:30:12;;;;;;;18.63;5.28;;;;;;;10.68;74.07;101770.81;5030149;28;20207;-81
2022/05/13 04:32:37;;;;;;;16.13;5.10;;;;;;;10.72;75.11;101763.84;5034467;28;20111;-81
2022/05/13 04:35:03;;;;;;;15.63;5.60;;;;;;;10.69;74.78;101768.22;5028655;28;20167;-81
2022/05/13 04:37:28;;;;;;;14.98;5.43;;;;;;;10.69;74.67;101783.78;5029220;28;20046;-81
2022/05/13 04:39:53;;;;;;;14.83;5.30;;;;;;;10.73;74.78;101786.31;5024357;28;20485;-76
2022/05/13 04:45:05;;;;;;;13.73;4.85;;;;;;;10.91;74.71;101794.81;5020542;28;20093;-76
2022/05/13 04:50:14;;;;;;;19.27;5.88;;;;;;;10.96;74.93;101799.94;5024770;28;20114;-76
2022/05/13 04:52:40;;;;;;;21.08;5.38;;;;;;;10.92;74.32;101798.25;5035409;28;20418;-76
2022/05/13 04:55:05;;;;;;;17.23;5.20;;;;;;;10.98;74.54;101804.25;5023792;28;20033;-76
2022/05/13 04:57:31;;;;;;;18.00;6.03;;;;;;;11.09;74.39;101807.59;5026065;28;20021;-77
2022/05/13 04:59:56;;;;;;;18.80;5.43;;;;;;;11.24;74.04;101811.75;5029763;28;20088;-76
2022/05/13 05:02:22;;;;;;;18.95;5.75;;;;;;;11.37;74.16;101807.28;5039110;28;20199;-77
2022/05/13 05:04:47;;;;;;;18.80;5.93;;;;;;;11.42;73.46;101813.28;5027933;28;20554;-76
2022/05/13 05:07:12;;;;;;;18.95;5.45;;;;;;;11.50;73.06;101821.84;5029633;28;20080;-77
2022/05/13 05:09:39;;;;;;;16.27;5.85;;;;;;;11.52;72.83;101816.63;5025168;28;21400;-77
2022/05/13 05:12:05;;;;;;;16.50;5.32;;;;;;;11.53;72.87;101823.56;5023378;28;20064;-76
2022/05/13 05:14:30;;;;;;;18.17;5.43;;;;;;;11.53;72.94;101827.00;5021621;28;20087;-76
2022/05/13 05:16:56;;;;;;;18.33;5.70;;;;;;;11.60;72.90;101823.44;5029198;28;20109;-76
2022/05/13 05:19:21;;;;;;;17.93;5.67;;;;;;;11.68;73.09;101828.53;5028702;28;20773;-81
2022/05/13 05:21:46;;;;;;;16.77;5.70;;;;;;;11.73;72.25;101827.63;5030177;28;20295;-82
2022/05/13 05:24:11;;;;;;;22.57;5.90;;;;;;;11.79;72.50;101830.19;5017439;28;20025;-81
2022/05/13 05:26:37;;;;;;;14.38;5.65;;;;;;;11.86;73.59;101829.22;5023397;28;20395;-81
2022/05/13 05:29:02;;;;;;;21.67;6.00;;;;;;;11.92;72.40;101830.00;5014082;28;20490;-80
2022/05/13 05:31:28;;;;;;;20.10;6.00;;;;;;;11.92;72.21;101846.47;5014003;28;20420;-81
2022/05/13 05:33:53;;;;;;;19.93;6.37;;;;;;;11.91;72.30;101844.72;5014762;28;20057;-81
2022/05/13 05:36:18;;;;;;;18.70;5.40;;;;;;;11.94;72.50;101849.88;5018300;28;20631;-81
2022/05/13 05:38:44;;;;;;;19.42;6.07;;;;;;;11.99;72.26;101849.84;5019790;28;20366;-81
2022/05/13 05:41:09;;;;;;;17.50;6.23;;;;;;;12.02;72.05;101847.19;5020520;28;20033;-81
2022/05/13 05:43:35;;;;;;;19.45;5.97;;;;;;;12.06;72.08;101861.88;5031671;28;20804;-81
2022/05/13 05:46:01;;;;;;;23.13;6.10;;;;;;;12.09;71.81;101859.22;5014399;28;20523;-81
2022/05/13 05:48:27;;;;;;;17.33;5.85;;;;;;;12.13;72.38;101866.09;5023678;28;20029;-81
2022/05/13 05:50:55;;;;;;;15.02;5.68;;;;;;;12.21;72.27;101867.69;5045189;28;20487;-80
2022/05/13 05:59:07;;;;;;;;;;;;;;;12.54;70.80;101875.91;5023929;28;20148;-81
2022/05/13 06:01:33;;;;;;;20.07;5.90;;;;;;;12.62;70.88;101874.06;5030967;28;19925;-81
2022/05/13 06:03:58;;;;;;;18.13;6.00;;;;;;;12.70;71.02;101868.69;5033714;28;20178;-81
2022/05/13 06:06:24;;;;;;;18.63;6.22;;;;;;;12.85;70.85;101886.66;5027590;28;20025;-81
2022/05/13 06:08:50;;;;;;;22.30;6.43;;;;;;;12.99;70.39;101880.34;5029071;28;20051;-81
2022/05/13 06:11:15;;;;;;;17.73;6.15;;;;;;;13.14;69.66;101879.28;5028626;28;20065;-81
2022/05/13 06:13:40;;;;;;;20.15;6.68;;;;;;;13.27;68.73;101879.91;5017783;28;20062;-81
2022/05/13 06:16:09;;;;;;;18.13;6.03;;;;;;;13.44;69.00;101889.09;5026253;28;20084;-81
2022/05/13 06:18:36;;;;;;;22.52;7.22;;;;;;;13.50;67.89;101895.13;5036500;28;20291;-81
2022/05/13 06:21:01;;;;;;;20.98;6.45;;;;;;;13.56;68.15;101895.00;5030031;28;20160;-81
2022/05/13 06:23:27;;;;;;;17.10;6.78;;;;;;;13.58;68.05;101895.84;5028486;28;20124;-81
2022/05/13 06:25:52;;;;;;;17.87;6.87;;;;;;;13.64;68.15;101891.38;5028045;28;20072;-81
2022/05/13 06:28:17;;;;;;;23.52;7.15;;;;;;;13.73;68.03;101892.91;5027836;28;20292;-81
2022/05/13 06:30:43;;;;;;;19.93;8.13;;;;;;;13.83;67.99;101900.53;5031140;28;20029;-81
2022/05/13 06:33:08;;;;;;;18.43;7.60;;;;;;;13.85;67.63;101901.34;5025195;28;20802;-81
2022/05/13 06:35:34;;;;;;;19.95;7.43;;;;;;;13.88;67.57;101905.63;5039240;28;20286;-81
2022/05/13 06:37:59;;;;;;;21.80;8.27;;;;;;;13.88;67.20;101902.16;5033821;28;20108;-81
2022/05/13 06:40:26;;;;;;;20.80;8.45;;;;;;;13.89;67.44;101901.28;5018565;28;20030;-81
2022/05/13 06:42:52;;;;;;;23.30;7.30;;;;;;;13.99;67.97;101908.03;5024658;28;20021;-81
2022/05/13 06:45:18;;;;;;;23.50;8.05;;;;;;;14.04;67.50;101914.88;5026476;28;20090;-81
2022/05/13 06:47:43;;;;;;;25.13;8.18;;;;;;;14.09;66.99;101912.16;5027151;28;20030;-81
2022/05/13 06:50:11;;;;;;;25.58;8.05;;;;;;;14.13;67.32;101919.00;5035931;28;20410;-81
2022/05/13 06:52:38;;;;;;;20.38;8.52;;;;;;;14.17;66.88;101918.94;5030007;28;20264;-81
2022/05/13 06:55:04;;;;;;;23.65;8.52;;;;;;;14.17;68.25;101916.31;5038978;28;20029;-81
2022/05/13 06:57:30;;;;;;;20.42;8.65;;;;;;;14.26;66.94;101912.66;5040723;28;20037;-81
2022/05/13 06:59:56;;;;;;;24.88;8.60;;;;;;;14.37;67.01;101915.03;5048264;28;20576;-83
2022/05/13 07:02:23;;;;;;;20.65;7.75;;;;;;;14.45;67.08;101914.00;5048480;28;20637;-81
2022/05/13 07:04:49;;;;;;;22.38;8.95;;;;;;;14.53;67.03;101926.88;5031634;28;20018;-81
2022/05/13 07:07:14;;;;;;;26.75;9.05;;;;;;;14.68;66.38;101907.38;5032341;28;20036;-81
2022/05/13 07:09:40;;;;;;;24.92;8.68;;;;;;;14.90;65.87;101912.06;5032494;28;20415;-81
2022/05/13 07:12:07;;;;;;;21.65;9.02;;;;;;;15.15;65.08;101917.50;5032428;28;20029;-82
2022/05/13 07:14:34;;;;;;;24.65;9.18;;;;;;;15.33;64.66;101914.44;5032255;28;20025;-81
2022/05/13 07:17:00;;;;;;;20.52;8.57;;;;;;;15.41;63.74;101919.47;5031831;28;20034;-81
2022/05/13 07:19:25;;;;;;;21.40;8.90;;;;;;;15.47;64.69;101918.44;5032406;28;20032;-81
2022/05/13 07:21:51;;;;;;;26.57;8.63;;;;;;;15.51;63.40;101923.53;5032332;28;20025;-81
2022/05/13 07:24:16;;;;;;;22.70;8.90;;;;;;;15.68;63.25;101918.75;5031194;28;20276;-81
2022/05/13 07:26:42;;;;;;;20.65;8.40;;;;;;;15.99;63.64;101917.88;5032367;28;20098;-81
2022/05/13 07:29:07;;;;;;;21.95;9.10;;;;;;;16.31;61.99;101925.63;5032140;28;20036;-81
2022/05/13 07:31:34;;;;;;;16.90;8.20;;;;;;;16.78;60.13;101921.59;5031275;28;20484;-81
2022/05/13 07:34:00;;;;;;;18.58;8.48;;;;;;;17.32;58.09;101926.75;5031916;28;20276;-81
2022/05/13 07:36:25;;;;;;;18.13;8.70;;;;;;;17.66;58.73;101920.38;5032450;28;20031;-81
2022/05/13 07:41:34;;;;;;;17.77;8.20;;;;;;;18.71;55.11;101922.47;5032608;28;20105;-81
2022/05/13 07:43:59;;;;;;;18.13;8.57;;;;;;;18.72;52.76;101924.16;5032454;28;20069;-82
2022/05/13 07:46:25;;;;;;;15.88;8.75;;;;;;;18.78;52.02;101920.44;5030440;28;20283;-82
2022/05/13 07:48:51;;;;;;;15.70;8.43;;;;;;;18.92;52.42;101929.47;5031986;28;20049;-78
2022/05/13 07:51:17;;;;;;;16.83;8.23;;;;;;;19.08;52.00;101924.44;5032041;28;20026;-78
2022/05/13 07:53:42;;;;;;;17.70;8.73;;;;;;;18.83;52.16;101924.59;5031890;28;20372;-77
2022/05/13 07:56:08;;;;;;;22.35;9.13;;;;;;;18.67;52.53;101927.91;5031936;28;20091;-77
2022/05/13 07:58:34;;;;;;;19.35;8.70;;;;;;;18.44;53.05;101926.16;5029592;28;20275;-77
2022/05/13 08:00:59;;;;;;;17.85;8.15;;;;;;;18.61;53.64;101931.63;5031697;28;20487;-78
2022/05/13 08:03:26;;;;;;;20.90;8.75;;;;;;;18.53;51.93;101929.28;5031329;28;20111;-77
2022/05/13 08:05:57;;;;;;;16.33;8.10;;;;;;;18.20;53.20;101929.72;5031713;28;20026;-77
2022/05/13 08:08:30;;;;;;;17.92;8.27;;;;;;;17.90;53.87;101939.59;5031433;28;20060;-77
2022/05/13 08:10:59;;;;;;;19.87;7.90;;;;;;;17.58;54.27;101935.47;5031901;28;20045;-77
2022/05/13 08:13:25;;;;;;;16.65;8.32;;;;;;;17.18;54.96;101938.63;5029472;28;20036;-77
2022/05/13 08:15:51;;;;;;;16.00;7.88;;;;;;;16.86;56.04;101952.75;5029860;28;20075;-77
2022/05/13 08:18:18;;;;;;;22.45;8.70;;;;;;;16.48;56.53;101939.06;5030077;28;20026;-77
2022/05/13 08:20:45;;;;;;;18.48;8.18;;;;;;;16.18;57.70;101940.84;5031947;28;20037;-77
2022/05/13 08:23:11;;;;;;;13.68;8.07;;;;;;;15.93;58.31;101949.44;5029848;28;20093;-77
2022/05/13 08:25:36;;;;;;;19.10;8.65;;;;;;;15.77;59.27;101957.69;5031506;28;20101;-77
2022/05/13 08:28:04;;;;;;;18.98;8.55;;;;;;;15.66;60.09;101956.28;5029908;28;20032;-77
2022/05/13 08:30:30;;;;;;;18.00;8.52;;;;;;;15.56;60.04;101960.88;5033075;28;20083;-81
2022/05/13 08:32:56;;;;;;;18.58;8.00;;;;;;;15.53;61.03;101962.75;5032031;28;20021;-81
2022/05/13 08:35:22;;;;;;;16.75;7.85;;;;;;;15.59;60.64;101960.81;5032004;28;20057;-81
2022/05/13 08:37:50;;;;;;;15.68;7.65;;;;;;;15.82;59.99;101961.97;5046673;28;20026;-82
2022/05/13 08:40:29;;;;;;;17.50;7.82;;;;;;;16.16;59.28;101958.34;5031292;28;20030;-81
2022/05/13 08:42:54;;;;;;;22.35;7.70;;;;;;;16.53;59.44;101965.97;5031065;28;20022;-81
2022/05/13 08:45:21;;;;;;;19.17;7.82;;;;;;;16.89;57.86;101963.13;5031370;28;20253;-82
2022/05/13 08:47:49;;;;;;;13.63;7.68;;;;;;;17.17;57.03;101963.97;5031271;28;20033;-82
2022/05/13 08:50:26;;;;;;;16.88;8.30;;;;;;;17.23;55.60;101965.50;5032454;28;20037;-82
2022/05/13 08:53:06;;;;;;;19.42;7.45;;;;;;;17.12;55.51;101962.41;5030768;28;20109;-82
2022/05/13 08:55:44;;;;;;;20.30;7.32;;;;;;;16.98;56.11;101968.94;5031094;28;20052;-82
2022/05/13 08:58:24;;;;;;;16.25;7.60;;;;;;;16.75;56.07;101960.97;5019589;28;20112;-81
2022/05/13 09:00:53;;;;;;;18.92;6.70;;;;;;;16.53;56.25;101978.19;5030937;28;20099;-82
2022/05/13 09:03:27;;;;;;;14.68;7.05;;;;;;;16.30;56.79;101970.19;5030789;28;20033;-82
2022/05/13 09:06:25;;;;;;;15.20;7.28;;;;;;;16.09;57.48;101972.53;5031049;28;20026;-82
2022/05/13 09:08:52;;;;;;;18.83;6.68;;;;;;;15.92;59.00;101979.09;5031479;28;20040;-81
2022/05/13 09:11:29;;;;;;;16.17;6.75;;;;;;;15.91;59.08;101970.41;5031709;28;20030;-81
2022/05/13 09:14:32;;;;;;;15.70;6.47;;;;;;;15.98;58.38;101984.16;5029338;28;20557;-81
2022/05/13 09:17:23;;;;;;;17.67;6.35;;;;;;;16.34;57.76;101977.03;5031627;28;20041;-81
2022/05/13 09:20:04;;;;;;;15.25;6.22;;;;;;;17.02;57.66;101979.31;5031721;28;20083;-81
2022/05/13 09:22:35;;;;;;;15.52;6.32;;;;;;;17.53;53.82;101958.38;5030916;28;20167;-82
2022/05/13 09:25:00;;;;;;;18.88;5.85;;;;;;;18.04;52.87;101963.56;5028690;28;20110;-82
2022/05/13 09:27:26;;;;;;;15.07;5.63;;;;;;;18.26;51.69;101963.63;5030646;28;20104;-82
2022/05/13 09:29:51;;;;;;;11.30;5.47;;;;;;;18.16;50.54;101971.81;5029846;28;20057;-82
2022/05/13 09:32:28;;;;;;;10.90;5.50;;;;;;;18.22;52.29;101968.09;5030671;28;20650;-81
2022/05/13 09:35:07;;;;;;;11.57;5.70;;;;;;;18.54;52.45;101977.41;5031372;28;20026;-82
2022/05/13 09:37:41;;;;;;;13.90;5.30;;;;;;;18.87;50.94;101980.50;5030892;28;20116;-82
2022/05/13 09:40:18;;;;;;;12.32;5.20;;;;;;;19.32;49.81;101983.00;5030709;28;20037;-82
2022/05/13 09:42:46;;;;;;;11.07;4.85;;;;;;;19.70;48.54;101979.66;5024160;28;20037;-82
2022/05/13 09:45:18;;;;;;;11.18;4.80;;;;;;;19.69;46.53;101984.97;5031304;28;20068;-83
2022/05/13 09:47:46;;;;;;;12.15;4.57;;;;;;;19.38;46.94;101984.56;5030738;28;20025;-82
2022/05/13 09:50:29;;;;;;;10.68;4.07;;;;;;;19.22;47.75;101984.34;5031346;28;20025;-82
2022/05/13 09:53:06;;;;;;;9.60;4.35;;;;;;;18.96;46.96;101977.53;5029888;28;20108;-83
2022/05/13 09:55:38;;;;;;;11.02;4.72;;;;;;;18.85;47.10;101977.06;5028048;28;20179;-82
2022/05/13 09:58:15;;;;;;;11.18;4.25;;;;;;;18.85;46.36;101988.44;5029692;28;20037;-81
2022/05/13 10:00:41;;;;;;;7.97;2.97;;;;;;;19.10;46.00;101983.06;5030698;28;20049;-82
2022/05/13 10:03:16;;;;;;;8.48;3.10;;;;;;;19.52;44.43;101977.78;5029535;28;20100;-83
2022/05/13 10:05:41;;;;;;;11.48;3.30;;;;;;;19.93;42.81;101976.00;5029765;28;20027;-82
2022/05/13 10:08:09;;;;;;;8.05;3.40;;;;;;;20.10;42.17;101970.84;5029649;28;20018;-82
2022/05/13 10:16:21;;;;;;;8.73;3.05;;;;;;;20.43;42.24;101980.78;5030255;28;20040;-82
2022/05/13 10:19:24;;;;;;;9.65;3.50;;;;;;;20.39;43.07;101979.22;5029806;28;20029;-82
2022/05/13 10:22:00;;;;;;;9.25;3.70;;;;;;;20.18;41.88;101980.16;5029478;28;20032;-82
2022/05/13 10:24:28;;;;;;;5.80;2.80;;;;;;;19.86;41.32;101985.09;5029571;28;20443;-82
2022/05/13 10:26:56;;;;;;;8.13;2.80;;;;;;;19.68;42.76;101975.38;5030988;28;20079;-82
2022/05/13 10:29:29;;;;;;;7.38;2.97;;;;;;;19.50;42.24;101977.03;5030804;28;20017;-82
2022/05/13 10:31:56;;;;;;;10.35;3.33;;;;;;;19.31;42.86;101979.53;5031266;28;20104;-82
2022/05/13 10:34:27;;;;;;;10.13;3.42;;;;;;;19.13;42.94;101982.94;5044716;28;20022;-81
2022/05/13 10:37:07;;;;;;;10.40;3.55;;;;;;;19.11;44.16;101979.50;5030049;28;20405;-81
2022/05/13 10:39:45;;;;;;;10.27;3.50;;;;;;;19.13;45.19;101971.56;5028619;28;20109;-81
2022/05/13 10:42:24;;;;;;;7.80;3.13;;;;;;;19.16;44.47;101974.06;5029547;28;20022;-82
2022/05/13 10:45:02;;;;;;;10.13;3.50;;;;;;;19.25;43.26;101969.28;5029424;28;20463;-83
2022/05/13 10:47:58;;;;;;;8.05;2.97;;;;;;;19.34;44.18;101968.03;5019862;28;20446;-82
2022/05/13 10:50:33;;;;;;;8.18;3.10;;;;;;;19.57;41.89;101967.09;5030037;28;20152;-82
2022/05/13 10:53:10;;;;;;;6.05;3.20;;;;;;;19.54;41.45;101983.84;5028535;28;20130;-82
2022/05/13 10:56:06;;;;;;;9.10;3.65;;;;;;;19.43;43.38;101980.81;5027410;28;20034;-82
2022/05/13 10:58:52;;;;;;;6.82;3.60;;;;;;;19.21;43.33;101980.84;5029462;28;20033;-82
2022/05/13 11:01:21;;;;;;;11.30;4.10;;;;;;;19.18;43.88;101982.72;5029786;28;20256;-82
2022/05/13 11:04:01;;;;;;;6.85;3.50;;;;;;;19.16;43.88;101982.81;5029456;28;20124;-82
2022/05/13 11:06:57;;;;;;;11.00;3.67;;;;;;;19.16;42.88;101987.22;5020779;28;20104;-82
2022/05/13 11:09:56;;;;;;;9.02;3.75;;;;;;;19.35;43.94;101985.53;5044936;28;20026;-82
2022/05/13 11:12:44;;;;;;;10.60;3.95;;;;;;;19.53;46.03;101983.91;5028180;28;20060;-82
2022/05/13 11:15:39;;;;;;;12.23;4.18;;;;;;;19.69;44.01;101985.84;5018105;28;20495;-82
2022/05/13 11:18:15;;;;;;;8.40;3.55;;;;;;;19.70;43.54;101982.28;5029654;28;20109;-81
2022/05/13 11:20:55;;;;;;;8.50;3.63;;;;;;;19.92;44.54;101983.97;5029674;28;20101;-82
2022/05/13 11:23:39;;;;;;;8.73;2.90;;;;;;;20.12;42.13;101978.69;5027851;28;20144;-81
2022/05/13 11:26:10;;;;;;;5.95;2.47;;;;;;;20.13;40.36;101986.47;5027657;28;20022;-82
2022/05/13 11:28:56;;;;;;;7.03;2.47;;;;;;;20.09;41.18;101973.53;5029169;28;20025;-82
2022/05/13 11:31:37;;;;;;;5.47;2.20;;;;;;;19.94;40.89;101982.97;5031492;28;20026;-82
2022/05/13 11:34:39;;;;;;;7.07;2.20;;;;;;;19.98;43.08;101978.44;5030876;28;20041;-82
2022/05/13 11:37:12;;;;;;;8.43;2.33;;;;;;;20.00;41.60;101973.94;5032384;28;20026;-82
2022/05/13 11:40:07;;;;;;;6.05;2.40;;;;;;;20.26;41.70;101971.00;5032992;28;20095;-82
2022/05/13 11:43:20;;;;;;;7.55;2.35;;;;;;;20.41;40.95;101969.44;5032333;28;20532;-82
2022/05/13 11:45:58;;;;;;;9.48;2.40;;;;;;;20.39;41.97;101969.53;5037362;28;20671;-82
2022/05/13 11:48:30;;;;;;;8.98;2.72;;;;;;;20.55;41.04;101974.06;5031899;28;20403;-82
2022/05/13 11:51:10;;;;;;;6.28;2.70;;;;;;;20.67;41.28;101986.69;5032524;28;20029;-82
2022/05/13 11:53:41;;;;;;;7.88;3.08;;;;;;;20.57;41.07;101988.03;5032204;28;20155;-82
2022/05/13 11:56:30;;;;;;;9.93;3.20;;;;;;;20.42;40.75;101982.53;5032174;28;20030;-82
2022/05/13 11:58:57;;;;;;;10.27;2.92;;;;;;;20.27;41.15;101975.31;5028476;28;20387;-82
2022/05/13 12:01:37;;;;;;;9.82;3.45;;;;;;;20.19;42.16;101976.63;5032343;28;20165;-82
2022/05/13 12:04:11;;;;;;;8.43;3.30;;;;;;;20.27;41.20;101985.84;5031347;28;20045;-82
2022/05/13 12:06:52;;;;;;;;;;;;;;;20.39;40.41;101985.34;5028424;28;20017;-83